Time;durP1;ratioP1;P1;durP2;ratioP2;P2;SDS_P1;SDS_P2;PMS_P1;PMS_P2;Temp;Humidity;BMP_temperature;BMP_pressure;BME280_temperature;BME280_humidity;BME280_pressure;Samples;Min_cycle;Max_cycle;Signal;HPM_P1;HPM_P2
2022/12/11 00:00:43;;;;;;;97.28;35.70;;;;;;;-0.40;100.00;101128.78;5048950;28;20364;-53
2022/12/11 00:03:08;;;;;;;98.95;35.00;;;;;;;-0.40;100.00;101126.19;5052406;28;20479;-53
2022/12/11 00:05:34;;;;;;;97.68;35.58;;;;;;;-0.40;100.00;101126.19;5051353;28;20040;-54
2022/12/11 00:07:59;;;;;;;93.20;34.10;;;;;;;-0.40;100.00;101128.78;5052460;28;20116;-52
2022/12/11 00:10:25;;;;;;;96.18;34.72;;;;;;;-0.40;100.00;101123.56;5051708;28;20055;-51
2022/12/11 00:12:50;;;;;;;100.70;36.88;;;;;;;-0.39;100.00;101124.41;5052383;28;20447;-51
2022/12/11 00:15:16;;;;;;;93.88;33.30;;;;;;;-0.38;100.00;101121.75;5051842;28;20013;-53
2022/12/11 00:17:41;;;;;;;93.82;34.28;;;;;;;-0.36;100.00;101123.50;5049045;28;20029;-52
2022/12/11 00:20:08;;;;;;;98.70;35.42;;;;;;;-0.35;100.00;101119.97;5049663;28;20041;-52
2022/12/11 00:22:33;;;;;;;91.72;34.53;;;;;;;-0.35;100.00;101123.44;5052445;28;20051;-54
2022/12/11 00:24:58;;;;;;;79.90;31.98;;;;;;;-0.36;100.00;101119.13;5051804;28;20021;-51
2022/12/11 00:27:24;;;;;;;88.53;33.83;;;;;;;-0.35;100.00;101115.63;5051562;28;20364;-55
2022/12/11 00:29:49;;;;;;;90.63;33.22;;;;;;;-0.34;100.00;101112.09;5050762;28;20045;-51
2022/12/11 00:32:14;;;;;;;82.78;32.92;;;;;;;-0.32;100.00;101120.72;5051284;28;20086;-53
2022/12/11 00:34:40;;;;;;;81.60;34.35;;;;;;;-0.32;100.00;101114.66;5038443;28;20094;-51
2022/12/11 00:37:05;;;;;;;81.80;33.45;;;;;;;-0.30;100.00;101121.56;5051091;28;20021;-52
2022/12/11 00:39:30;;;;;;;80.65;32.88;;;;;;;-0.29;100.00;101125.88;5051284;28;20360;-55
2022/12/11 00:41:57;;;;;;;73.43;32.45;;;;;;;-0.30;100.00;101120.69;5052070;28;20021;-52
2022/12/11 00:44:22;;;;;;;81.78;32.53;;;;;;;-0.31;100.00;101121.63;5051671;28;20079;-54
2022/12/11 00:46:47;;;;;;;90.30;33.33;;;;;;;-0.30;100.00;101113.75;5060854;28;20056;-53
2022/12/11 00:49:13;;;;;;;82.43;33.70;;;;;;;-0.29;100.00;101122.41;5051502;28;20047;-51
2022/12/11 00:51:38;;;;;;;79.13;31.83;;;;;;;-0.29;100.00;101111.97;5051880;28;20044;-52
2022/12/11 00:54:03;;;;;;;74.38;31.55;;;;;;;-0.29;100.00;101110.22;5050877;28;20045;-53
2022/12/11 00:56:29;;;;;;;78.85;32.03;;;;;;;-0.28;100.00;101119.78;5051693;28;20110;-53
2022/12/11 00:58:55;;;;;;;75.90;30.55;;;;;;;-0.26;100.00;101106.69;5051742;28;20037;-52
2022/12/11 01:01:22;;;;;;;69.78;32.58;;;;;;;-0.27;100.00;101118.00;5050683;28;20033;-52
2022/12/11 01:03:48;;;;;;;77.32;32.65;;;;;;;-0.27;100.00;101111.03;5051576;28;20049;-51
2022/12/11 01:06:16;;;;;;;72.13;31.77;;;;;;;-0.26;100.00;101104.91;5050389;28;20028;-52
2022/12/11 01:08:42;;;;;;;73.43;31.20;;;;;;;-0.25;100.00;101105.75;5050201;28;20020;-54
2022/12/11 01:11:10;;;;;;;68.15;31.38;;;;;;;-0.25;100.00;101111.84;5053263;28;20029;-54
2022/12/11 01:13:36;;;;;;;74.55;31.65;;;;;;;-0.24;100.00;101108.34;5051868;28;20438;-52
2022/12/11 01:16:08;;;;;;;68.25;31.13;;;;;;;-0.23;100.00;101111.81;5051277;28;20025;-51
2022/12/11 01:18:33;;;;;;;67.95;30.75;;;;;;;-0.22;100.00;101109.16;5051446;28;20025;-52
2022/12/11 01:20:59;;;;;;;70.63;29.55;;;;;;;-0.23;100.00;101107.44;5051457;28;20083;-54
2022/12/11 01:23:24;;;;;;;67.85;31.42;;;;;;;-0.22;100.00;101110.91;5051164;28;20104;-51
2022/12/11 01:25:49;;;;;;;69.55;31.05;;;;;;;-0.23;100.00;101115.28;5050655;28;20033;-56
2022/12/11 01:28:14;;;;;;;65.55;30.55;;;;;;;-0.20;100.00;101112.59;5050816;28;20017;-52
2022/12/11 01:30:42;;;;;;;64.53;30.75;;;;;;;-0.20;100.00;101115.19;5051344;28;20028;-55
2022/12/11 01:33:08;;;;;;;63.80;28.92;;;;;;;-0.19;100.00;101119.50;5047244;28;20026;-56
2022/12/11 01:35:33;;;;;;;66.07;30.55;;;;;;;-0.18;100.00;101120.38;5046518;28;20084;-55
2022/12/11 01:37:58;;;;;;;61.58;29.45;;;;;;;-0.19;100.00;101111.66;5051285;28;20078;-54
2022/12/11 01:40:23;;;;;;;60.35;29.35;;;;;;;-0.17;100.00;101114.25;5051827;28;20021;-52
2022/12/11 01:42:49;;;;;;;58.75;29.95;;;;;;;-0.16;100.00;101108.13;5054008;28;20029;-55
2022/12/11 01:45:24;;;;;;;62.70;29.50;;;;;;;-0.13;100.00;101115.00;5048251;28;20039;-54
2022/12/11 01:48:04;;;;;;;64.25;29.20;;;;;;;-0.13;100.00;101105.44;5038135;28;20052;-52
2022/12/11 01:50:33;;;;;;;60.75;28.40;;;;;;;-0.14;100.00;101105.47;5039798;28;20029;-55
2022/12/11 01:52:59;;;;;;;58.63;26.88;;;;;;;-0.12;100.00;101101.91;5051775;28;20024;-51
2022/12/11 01:55:25;;;;;;;62.08;27.83;;;;;;;-0.12;100.00;101101.91;5053785;28;20352;-53
2022/12/11 01:57:52;;;;;;;54.33;26.45;;;;;;;-0.12;100.00;101094.06;5055179;28;20074;-53
2022/12/11 02:00:19;;;;;;;52.28;27.05;;;;;;;-0.10;100.00;101101.88;5053777;28;20037;-54
2022/12/11 02:02:44;;;;;;;60.75;28.90;;;;;;;-0.11;100.00;101098.41;5049725;28;20036;-55
2022/12/11 02:05:10;;;;;;;53.72;27.20;;;;;;;-0.10;100.00;101100.13;5045709;28;20037;-52
2022/12/11 02:07:47;;;;;;;54.40;27.48;;;;;;;-0.08;100.00;101098.34;5052897;28;20021;-55
2022/12/11 02:10:12;;;;;;;55.75;26.90;;;;;;;-0.07;100.00;101107.00;5054514;28;20133;-55
2022/12/11 02:12:56;;;;;;;53.85;26.25;;;;;;;-0.07;100.00;101107.00;5047633;28;20119;-53
2022/12/11 02:15:36;;;;;;;55.95;26.80;;;;;;;-0.06;100.00;101099.13;5048302;28;20033;-52
2022/12/11 02:18:18;;;;;;;58.95;27.20;;;;;;;-0.07;100.00;101093.97;5053672;28;20032;-52
2022/12/11 02:20:57;;;;;;;54.78;26.05;;;;;;;-0.06;100.00;101095.69;5047666;28;20116;-52
2022/12/11 02:23:42;;;;;;;57.28;26.27;;;;;;;-0.06;100.00;101103.50;5043016;28;20035;-52
2022/12/11 02:26:21;;;;;;;57.00;27.10;;;;;;;-0.07;100.00;101097.41;5054078;28;20039;-52
2022/12/11 02:28:54;;;;;;;51.22;25.83;;;;;;;-0.06;100.00;101095.69;5053596;28;20368;-55
2022/12/11 02:31:37;;;;;;;56.08;26.52;;;;;;;-0.05;100.00;101097.38;5053900;28;20372;-53
2022/12/11 02:34:31;;;;;;;56.33;26.73;;;;;;;-0.05;100.00;101093.03;5053369;28;20475;-55
2022/12/11 02:37:02;;;;;;;56.28;26.20;;;;;;;-0.07;100.00;101086.97;5045996;28;20498;-53
2022/12/11 02:39:30;;;;;;;51.58;26.60;;;;;;;-0.07;100.00;101093.97;5054314;28;20174;-56
2022/12/11 02:41:55;;;;;;;54.38;25.27;;;;;;;-0.08;100.00;101090.50;5053942;28;20024;-53
2022/12/11 02:44:29;;;;;;;51.25;26.65;;;;;;;-0.09;100.00;101099.22;5053533;28;20120;-55
2022/12/11 02:46:55;;;;;;;46.85;24.33;;;;;;;-0.08;100.00;101098.34;5046744;28;20028;-55
2022/12/11 02:49:22;;;;;;;48.95;26.20;;;;;;;-0.08;100.00;101093.09;5053374;28;20025;-53
2022/12/11 02:51:49;;;;;;;46.22;24.13;;;;;;;-0.07;100.00;101097.41;5052633;28;20100;-53
2022/12/11 02:54:24;;;;;;;46.88;24.58;;;;;;;-0.06;100.00;101095.69;5052981;28;20029;-54
2022/12/11 02:57:19;;;;;;;46.95;23.85;;;;;;;-0.05;100.00;101095.63;5053295;28;20033;-55
2022/12/11 02:59:45;;;;;;;43.95;23.27;;;;;;;-0.06;100.00;101096.53;5047020;28;20035;-53
2022/12/11 03:02:12;;;;;;;40.47;21.92;;;;;;;-0.07;100.00;101092.19;5051625;28;20024;-54
2022/12/11 03:04:38;;;;;;;36.45;21.63;;;;;;;-0.05;100.00;101092.16;5052695;28;20021;-54
2022/12/11 03:07:14;;;;;;;33.95;20.58;;;;;;;-0.05;100.00;101092.16;5052288;28;20576;-56
2022/12/11 03:09:42;;;;;;;40.50;22.38;;;;;;;-0.07;100.00;101084.34;5052708;28;20025;-56
2022/12/11 03:12:10;;;;;;;36.35;20.15;;;;;;;-0.08;100.00;101081.81;5053456;28;20036;-55
2022/12/11 03:14:38;;;;;;;31.35;18.67;;;;;;;-0.08;100.00;101081.81;5052327;28;20128;-53
2022/12/11 03:17:17;;;;;;;34.20;20.08;;;;;;;-0.08;100.00;101074.00;5052511;28;20498;-56
2022/12/11 03:19:53;;;;;;;29.77;19.33;;;;;;;-0.09;100.00;101074.88;5053220;28;20079;-52
2022/12/11 03:22:38;;;;;;;31.38;18.77;;;;;;;-0.06;100.00;101077.41;5053002;28;20036;-55
2022/12/11 03:25:15;;;;;;;31.20;19.20;;;;;;;-0.11;100.00;101077.53;5053402;28;20378;-56
2022/12/11 03:27:53;;;;;;;30.67;19.73;;;;;;;-0.10;100.00;101076.63;5051776;28;20029;-56
2022/12/11 03:30:20;;;;;;;31.63;17.88;;;;;;;-0.11;100.00;101076.69;5052687;28;20037;-52
2022/12/11 03:33:01;;;;;;;31.58;19.17;;;;;;;-0.11;100.00;101069.69;5052552;28;20099;-55
2022/12/11 03:35:43;;;;;;;30.92;18.73;;;;;;;-0.09;100.00;101067.03;5052547;28;20029;-56
2022/12/11 03:38:20;;;;;;;28.60;17.05;;;;;;;-0.10;100.00;101066.19;5042491;28;20105;-55
2022/12/11 03:40:48;;;;;;;34.45;18.13;;;;;;;-0.12;100.00;101059.28;5050767;28;20032;-54
2022/12/11 03:43:15;;;;;;;30.65;17.02;;;;;;;-0.11;100.00;101067.09;5052536;28;20024;-57
2022/12/11 03:45:42;;;;;;;30.88;18.45;;;;;;;-0.12;100.00;101060.13;5052228;28;20162;-56
2022/12/11 03:48:10;;;;;;;26.67;17.27;;;;;;;-0.11;100.00;101063.63;5052101;28;20033;-53
2022/12/11 03:50:37;;;;;;;32.40;17.38;;;;;;;-0.10;100.00;101057.50;5051682;28;20036;-55
2022/12/11 03:53:03;;;;;;;29.45;17.83;;;;;;;-0.09;100.00;101056.59;5051595;28;20589;-52
2022/12/11 03:55:32;;;;;;;26.48;17.63;;;;;;;-0.10;100.00;101053.13;5047431;28;20013;-55
2022/12/11 03:57:57;;;;;;;31.50;19.40;;;;;;;-0.10;100.00;101047.91;5052571;28;20127;-56
2022/12/11 04:00:23;;;;;;;27.83;16.90;;;;;;;-0.08;100.00;101045.28;5056704;28;20155;-54
2022/12/11 04:03:11;;;;;;;28.25;17.20;;;;;;;-0.08;100.00;101038.28;5061395;28;20028;-56
2022/12/11 04:05:33;;;;;;;29.42;18.05;;;;;;;-0.06;100.00;101043.47;5051876;28;20036;-56
2022/12/11 04:07:59;;;;;;;27.25;17.55;;;;;;;-0.06;100.00;101036.47;5051055;28;20376;-56
2022/12/11 04:10:24;;;;;;;26.92;17.45;;;;;;;-0.07;100.00;101047.81;5051716;28;20110;-56
2022/12/11 04:12:49;;;;;;;29.05;18.05;;;;;;;-0.07;100.00;101041.75;5052206;28;20056;-54
2022/12/11 04:15:15;;;;;;;27.58;18.17;;;;;;;-0.07;100.00;101046.97;5052258;28;20420;-56
2022/12/11 04:26:13;;;;;;;24.98;15.70;;;;;;;-0.05;100.00;101043.41;5047678;28;20051;-56
2022/12/11 04:28:39;;;;;;;27.60;17.80;;;;;;;-0.04;100.00;101050.34;5052273;28;20406;-54
2022/12/11 04:31:05;;;;;;;29.25;18.02;;;;;;;-0.05;100.00;101047.75;5051469;28;20029;-53
2022/12/11 04:33:30;;;;;;;28.40;16.92;;;;;;;-0.05;100.00;101043.41;5044177;28;20068;-56
2022/12/11 04:35:59;;;;;;;27.35;16.67;;;;;;;-0.04;100.00;101044.25;5050993;28;20020;-56
2022/12/11 04:38:25;;;;;;;28.38;17.80;;;;;;;-0.04;100.00;101037.28;5052169;28;20036;-55
2022/12/11 04:41:03;;;;;;;27.58;16.65;;;;;;;-0.02;100.00;101045.94;5051397;28;20044;-55
2022/12/11 04:43:28;;;;;;;26.55;16.77;;;;;;;-0.04;100.00;101042.50;5051927;28;20047;-55
2022/12/11 04:46:09;;;;;;;31.55;17.90;;;;;;;-0.03;100.00;101036.38;5051671;28;20478;-53
2022/12/11 04:48:35;;;;;;;30.50;18.27;;;;;;;-0.07;100.00;101026.91;5051601;28;20061;-54
2022/12/11 04:51:01;;;;;;;27.33;18.17;;;;;;;-0.08;100.00;101033.06;5051410;28;20025;-54
2022/12/11 04:53:26;;;;;;;25.92;17.08;;;;;;;-0.07;100.00;101041.75;5051067;28;20482;-54
2022/12/11 04:55:53;;;;;;;29.17;17.80;;;;;;;-0.07;100.00;101031.28;5049352;28;20027;-56
2022/12/11 04:58:18;;;;;;;27.77;17.58;;;;;;;-0.08;100.00;101024.38;5050981;28;20086;-56
2022/12/11 05:00:43;;;;;;;27.85;18.13;;;;;;;-0.08;100.00;101029.59;5051850;28;20024;-53
2022/12/11 05:03:09;;;;;;;27.35;17.67;;;;;;;-0.08;100.00;101029.59;5050367;28;20544;-55
2022/12/11 05:05:35;;;;;;;31.45;18.42;;;;;;;-0.09;100.00;101020.03;5051536;28;20033;-56
2022/12/11 05:08:00;;;;;;;24.77;17.08;;;;;;;-0.10;100.00;101027.03;5050851;28;20025;-55
2022/12/11 05:10:25;;;;;;;27.10;18.58;;;;;;;-0.11;100.00;101024.47;5051758;28;20036;-56
2022/12/11 05:12:50;;;;;;;24.92;16.58;;;;;;;-0.12;100.00;101026.19;5050511;28;20123;-53
2022/12/11 05:15:16;;;;;;;26.42;17.17;;;;;;;-0.10;100.00;101026.16;5051058;28;20021;-54
2022/12/11 05:17:42;;;;;;;30.00;18.45;;;;;;;-0.10;100.00;101027.03;5055227;28;20374;-55
2022/12/11 05:20:09;;;;;;;28.55;18.33;;;;;;;-0.11;100.00;101020.09;5055534;28;20075;-54
2022/12/11 05:22:34;;;;;;;30.48;17.65;;;;;;;-0.09;100.00;101020.03;5054924;28;20087;-55
2022/12/11 05:25:00;;;;;;;28.83;18.30;;;;;;;-0.08;100.00;101011.31;5055593;28;20021;-54
2022/12/11 05:27:25;;;;;;;26.80;18.40;;;;;;;-0.08;100.00;101022.63;5055069;28;20044;-56
2022/12/11 05:29:50;;;;;;;29.30;18.52;;;;;;;-0.07;100.00;101011.25;5055410;28;20479;-53
2022/12/11 05:32:15;;;;;;;29.92;19.35;;;;;;;-0.08;100.00;101022.63;5054589;28;20124;-54
2022/12/11 05:34:41;;;;;;;26.92;18.02;;;;;;;-0.08;100.00;101013.94;5055172;28;20032;-53
2022/12/11 05:37:06;;;;;;;26.67;17.55;;;;;;;-0.07;100.00;101019.09;5055426;28;20041;-55
2022/12/11 05:39:32;;;;;;;26.70;17.25;;;;;;;-0.07;100.00;101007.78;5054336;28;20039;-56
2022/12/11 05:41:57;;;;;;;26.85;16.50;;;;;;;-0.07;100.00;101013.00;5055463;28;20479;-57
2022/12/11 05:44:22;;;;;;;25.50;16.75;;;;;;;-0.06;100.00;101009.50;5054424;28;20025;-56
2022/12/11 05:46:48;;;;;;;25.45;16.20;;;;;;;-0.06;100.00;101012.97;5055002;28;20032;-55
2022/12/11 05:49:14;;;;;;;27.70;17.48;;;;;;;-0.05;100.00;101024.25;5054838;28;20025;-55
2022/12/11 05:51:40;;;;;;;29.65;17.10;;;;;;;-0.04;100.00;101018.16;5054653;28;20483;-56
2022/12/11 05:54:05;;;;;;;25.98;15.43;;;;;;;-0.06;100.00;101015.59;5047389;28;20025;-55
2022/12/11 05:56:32;;;;;;;24.35;17.10;;;;;;;-0.05;100.00;101019.91;5047971;28;20017;-56
2022/12/11 05:58:59;;;;;;;25.08;16.33;;;;;;;-0.03;100.00;101028.56;5054383;28;20386;-56
2022/12/11 06:01:37;;;;;;;26.58;16.83;;;;;;;-0.04;100.00;101024.22;5054487;28;20040;-54
2022/12/11 06:04:04;;;;;;;26.63;17.38;;;;;;;-0.03;100.00;101020.72;5052817;28;20029;-56
2022/12/11 06:06:29;;;;;;;29.63;17.08;;;;;;;-0.02;100.00;101027.66;5054588;28;20024;-55
2022/12/11 06:08:57;;;;;;;26.20;17.23;;;;;;;-0.01;100.00;101020.69;5054740;28;20070;-55
2022/12/11 06:11:23;;;;;;;26.55;16.00;;;;;;;-0.02;100.00;101018.94;5053872;28;20039;-53
2022/12/11 06:13:48;;;;;;;23.83;16.27;;;;;;;-0.04;100.00;101026.84;5053087;28;20509;-56
2022/12/11 06:16:14;;;;;;;24.88;15.68;;;;;;;-0.02;100.00;101024.19;5054433;28;20055;-56
2022/12/11 06:18:42;;;;;;;25.98;15.90;;;;;;;-0.06;100.00;101025.19;5054010;28;20039;-54
2022/12/11 06:21:18;;;;;;;25.88;17.20;;;;;;;-0.06;100.00;101020.81;5054513;28;20025;-57
2022/12/11 06:23:45;;;;;;;25.08;16.50;;;;;;;-0.05;100.00;101014.69;5054392;28;20045;-54
2022/12/11 06:26:11;;;;;;;23.48;15.23;;;;;;;-0.02;100.00;101024.19;5053387;28;20039;-54
2022/12/11 06:28:37;;;;;;;25.08;16.98;;;;;;;-0.02;100.00;101017.22;5053159;28;20103;-56
2022/12/11 06:31:03;;;;;;;27.05;16.73;;;;;;;-0.01;100.00;101018.06;5052856;28;20487;-53
2022/12/11 06:33:29;;;;;;;25.83;16.58;;;;;;;0.01;100.00;101020.63;5046319;28;20052;-56
2022/12/11 06:35:55;;;;;;;25.55;16.65;;;;;;;0.01;100.00;101024.09;5051310;28;20020;-55
2022/12/11 06:38:21;;;;;;;27.10;17.08;;;;;;;0.01;100.00;101015.41;5054007;28;20020;-57
2022/12/11 06:40:53;;;;;;;26.40;15.85;;;;;;;0.02;100.00;101024.94;5052498;28;20100;-53
2022/12/11 06:43:19;;;;;;;27.15;16.83;;;;;;;0.03;100.00;101021.44;5054169;28;20471;-56
2022/12/11 06:45:44;;;;;;;26.30;16.02;;;;;;;0.02;100.00;101017.09;5053182;28;20027;-56
2022/12/11 06:48:09;;;;;;;28.50;16.38;;;;;;;0.03;100.00;101009.22;5053418;28;20102;-57
2022/12/11 06:50:37;;;;;;;25.42;17.10;;;;;;;0.02;100.00;101014.50;5050966;28;20033;-56
2022/12/11 06:53:02;;;;;;;24.90;16.27;;;;;;;0.02;100.00;101014.50;5053683;28;20104;-57
2022/12/11 06:55:28;;;;;;;26.73;17.23;;;;;;;0.01;100.00;101012.81;5051017;28;20107;-54
2022/12/11 06:57:53;;;;;;;25.70;17.05;;;;;;;0.00;100.00;101009.34;5054310;28;20033;-56
2022/12/11 07:00:18;;;;;;;25.02;16.90;;;;;;;0.00;100.00;101006.72;5053253;28;20562;-56
2022/12/11 07:02:44;;;;;;;27.92;17.02;;;;;;;0.00;100.00;101011.97;5052707;28;20025;-53
2022/12/11 07:05:09;;;;;;;30.63;17.45;;;;;;;-0.01;100.00;101016.31;5050652;28;20489;-53
2022/12/11 07:07:34;;;;;;;26.30;16.83;;;;;;;-0.02;100.00;101019.84;5051599;28;20020;-56
2022/12/11 07:09:59;;;;;;;26.70;18.08;;;;;;;-0.01;100.00;101026.75;5051027;28;20643;-53
2022/12/11 07:12:25;;;;;;;26.70;16.70;;;;;;;-0.01;100.00;101026.75;5043821;28;20112;-53
2022/12/11 07:14:50;;;;;;;25.73;17.00;;;;;;;-0.02;100.00;101025.06;5051181;28;20025;-55
2022/12/11 07:17:15;;;;;;;25.15;16.83;;;;;;;0.01;100.00;101028.47;5052785;28;20056;-53
2022/12/11 07:19:41;;;;;;;25.92;17.58;;;;;;;0.01;100.00;101026.69;5052993;28;20036;-54
2022/12/11 07:22:06;;;;;;;27.77;17.10;;;;;;;0.02;100.00;101028.44;5046084;28;20029;-57
2022/12/11 07:24:31;;;;;;;26.90;16.70;;;;;;;0.02;100.00;101038.00;5039553;28;20044;-54
2022/12/11 07:26:57;;;;;;;27.30;17.30;;;;;;;0.01;100.00;101038.91;5050259;28;20513;-52
2022/12/11 07:29:22;;;;;;;25.67;16.98;;;;;;;-0.02;100.00;101040.72;5048070;28;20031;-51
2022/12/11 07:31:48;;;;;;;26.35;17.17;;;;;;;-0.01;100.00;101047.63;5052954;28;20391;-53
2022/12/11 07:34:13;;;;;;;27.60;17.08;;;;;;;-0.02;100.00;101045.94;5051762;28;20091;-52
2022/12/11 07:36:38;;;;;;;28.95;18.25;;;;;;;-0.02;100.00;101043.34;5049047;28;20025;-55
2022/12/11 07:39:04;;;;;;;25.40;16.38;;;;;;;-0.01;100.00;101036.34;5052547;28;20374;-54
2022/12/11 07:41:30;;;;;;;27.38;17.13;;;;;;;0.01;100.00;101041.53;5034870;28;20052;-52
2022/12/11 07:43:57;;;;;;;25.85;17.00;;;;;;;-0.01;100.00;101039.81;5041732;28;20025;-53
2022/12/11 07:46:26;;;;;;;24.73;16.20;;;;;;;-0.01;100.00;101037.19;5040314;28;20140;-54
2022/12/11 07:48:51;;;;;;;27.50;17.40;;;;;;;0.00;100.00;101038.06;5049859;28;20040;-55
2022/12/11 07:51:25;;;;;;;25.83;16.98;;;;;;;0.00;100.00;101030.22;5041118;28;20037;-55
2022/12/11 07:53:51;;;;;;;27.05;17.63;;;;;;;0.02;100.00;101032.78;5049869;28;20071;-55
2022/12/11 07:56:17;;;;;;;27.48;17.63;;;;;;;0.02;100.00;101040.59;5049536;28;20045;-54
2022/12/11 07:58:43;;;;;;;28.45;17.67;;;;;;;-0.01;100.00;101037.19;5048727;28;20037;-53
2022/12/11 08:01:15;;;;;;;30.33;18.83;;;;;;;-0.02;100.00;101038.13;5039313;28;20080;-55
2022/12/11 08:03:40;;;;;;;29.90;17.08;;;;;;;-0.02;100.00;101032.88;5043545;28;20056;-53
2022/12/11 08:06:06;;;;;;;28.05;17.63;;;;;;;-0.01;100.00;101039.81;5040603;28;20474;-53
2022/12/11 08:08:32;;;;;;;27.92;18.00;;;;;;;0.01;100.00;101038.91;5043794;28;20057;-52
2022/12/11 08:11:04;;;;;;;28.70;18.15;;;;;;;0.01;100.00;101038.91;5046822;28;20065;-52
2022/12/11 08:13:30;;;;;;;31.15;18.33;;;;;;;0.01;100.00;101042.38;5047461;28;20049;-53
2022/12/11 08:15:56;;;;;;;32.60;18.70;;;;;;;0.00;100.00;101040.69;5043596;28;20356;-52
2022/12/11 08:18:21;;;;;;;28.17;18.20;;;;;;;0.00;100.00;101035.47;5047714;28;20112;-55
2022/12/11 08:20:47;;;;;;;31.88;18.77;;;;;;;0.02;100.00;101038.88;5042786;28;20143;-55
2022/12/11 08:23:13;;;;;;;32.22;19.27;;;;;;;0.02;100.00;101038.00;5043738;28;20108;-53
2022/12/11 08:25:38;;;;;;;32.38;18.35;;;;;;;0.03;100.00;101037.94;5043320;28;20032;-55
2022/12/11 08:28:03;;;;;;;30.50;18.20;;;;;;;0.04;100.00;101044.06;5043823;28;20148;-52
2022/12/11 08:30:29;;;;;;;31.58;19.05;;;;;;;0.03;100.00;101040.56;5043454;28;20029;-54
2022/12/11 08:32:54;;;;;;;30.33;18.65;;;;;;;0.04;100.00;101039.66;5043455;28;20067;-53
2022/12/11 08:35:19;;;;;;;29.52;18.00;;;;;;;0.03;100.00;101037.94;5044754;28;20497;-53
2022/12/11 08:37:45;;;;;;;31.85;18.55;;;;;;;0.02;100.00;101043.22;5043845;28;20178;-55
2022/12/11 08:40:11;;;;;;;32.15;18.08;;;;;;;0.02;100.00;101038.00;5043151;28;20041;-52
2022/12/11 08:42:36;;;;;;;29.65;18.60;;;;;;;0.03;100.00;101039.72;5044536;28;20517;-52
2022/12/11 08:45:02;;;;;;;32.28;19.13;;;;;;;0.03;100.00;101032.72;5044227;28;20033;-52
2022/12/11 08:47:28;;;;;;;30.17;18.73;;;;;;;0.03;100.00;101032.72;5046229;28;20048;-55
2022/12/11 08:49:53;;;;;;;29.30;18.63;;;;;;;0.05;100.00;101035.28;5042445;28;20035;-54
2022/12/11 08:52:18;;;;;;;31.75;19.42;;;;;;;0.06;100.00;101037.03;5046400;28;20490;-52
2022/12/11 08:54:44;;;;;;;31.80;18.20;;;;;;;0.06;100.00;101031.78;5044193;28;20471;-54
2022/12/11 08:57:09;;;;;;;29.52;18.15;;;;;;;0.05;100.00;101025.72;5045456;28;20041;-57
2022/12/11 08:59:34;;;;;;;29.55;18.13;;;;;;;0.06;100.00;101030.03;5016463;28;20025;-56
2022/12/11 09:02:00;;;;;;;29.27;17.67;;;;;;;0.06;100.00;101032.63;5035595;28;20036;-57
2022/12/11 09:04:25;;;;;;;29.55;18.40;;;;;;;0.07;100.00;101028.28;5044183;28;20028;-56
2022/12/11 09:06:50;;;;;;;30.65;18.67;;;;;;;0.08;100.00;101025.59;5042298;28;20023;-56
2022/12/11 09:09:16;;;;;;;28.90;17.23;;;;;;;0.08;100.00;101029.97;5051149;28;20021;-57
2022/12/11 09:11:41;;;;;;;30.25;18.17;;;;;;;0.06;100.00;101024.81;5047186;28;20032;-56
2022/12/11 09:14:07;;;;;;;30.83;17.85;;;;;;;0.07;100.00;101021.31;5033989;28;20042;-56
2022/12/11 09:16:36;;;;;;;30.10;17.95;;;;;;;0.06;100.00;101024.81;5037464;28;20146;-56
2022/12/11 09:19:02;;;;;;;27.27;17.55;;;;;;;0.07;100.00;101023.91;5047813;28;20033;-56
2022/12/11 09:21:29;;;;;;;31.73;17.95;;;;;;;0.06;100.00;101026.56;5040126;28;20390;-55
2022/12/11 09:23:57;;;;;;;31.90;19.00;;;;;;;0.05;100.00;101028.34;5050838;28;20029;-56
2022/12/11 09:26:24;;;;;;;31.75;18.63;;;;;;;0.07;100.00;101026.53;5050307;28;20502;-57
2022/12/11 09:28:52;;;;;;;29.42;18.02;;;;;;;0.08;100.00;101027.38;5050991;28;20033;-56
2022/12/11 09:31:27;;;;;;;30.47;19.40;;;;;;;0.09;100.00;101029.09;5048684;28;20029;-53
2022/12/11 09:33:59;;;;;;;32.55;19.85;;;;;;;0.09;100.00;101031.72;5049947;28;20844;-53
2022/12/11 09:36:25;;;;;;;34.70;19.13;;;;;;;0.09;100.00;101023.88;5039849;28;20025;-54
2022/12/11 09:38:51;;;;;;;31.15;18.27;;;;;;;0.10;100.00;101023.81;5038507;28;20110;-56
2022/12/11 09:41:19;;;;;;;31.52;18.50;;;;;;;0.11;100.00;101019.44;5035383;28;20029;-57
2022/12/11 09:44:28;;;;;;;30.70;19.40;;;;;;;0.13;100.00;101018.53;5044559;28;20032;-57
2022/12/11 09:46:53;;;;;;;33.03;19.17;;;;;;;0.10;100.00;101013.38;5047594;28;20072;-56
2022/12/11 09:49:38;;;;;;;32.85;19.23;;;;;;;0.11;100.00;101015.06;5045339;28;20123;-56
2022/12/11 09:52:16;;;;;;;35.08;20.23;;;;;;;0.10;100.00;101008.16;5044916;28;20033;-56
2022/12/11 09:54:51;;;;;;;35.42;20.13;;;;;;;0.11;100.00;101009.84;5045358;28;20036;-55
2022/12/11 09:57:39;;;;;;;31.33;19.48;;;;;;;0.13;100.00;101008.06;5044759;28;20493;-56
2022/12/11 10:00:14;;;;;;;29.65;18.80;;;;;;;0.12;100.00;101006.34;5045442;28;20029;-56
2022/12/11 10:02:55;;;;;;;32.28;19.73;;;;;;;0.15;100.00;101018.44;5049162;28;20033;-56
2022/12/11 10:05:52;;;;;;;31.27;19.35;;;;;;;0.16;100.00;101020.16;5042808;28;20025;-56
2022/12/11 10:08:41;;;;;;;31.27;17.58;;;;;;;0.19;100.00;101014.84;5040979;28;20032;-56
2022/12/11 10:11:25;;;;;;;;;;;;;;;0.25;100.00;101005.97;5039482;28;20029;-54
2022/12/11 10:14:04;;;;;;;28.00;17.23;;;;;;;0.21;100.00;101010.44;5033903;28;19917;-56
2022/12/11 10:16:40;;;;;;;29.45;17.05;;;;;;;0.21;100.00;101005.19;5031386;28;20087;-57
2022/12/11 10:19:34;;;;;;;31.73;18.05;;;;;;;0.20;100.00;101018.31;5030182;28;20379;-54
2022/12/11 10:22:00;;;;;;;32.22;17.88;;;;;;;0.18;100.00;101008.78;5043847;28;20118;-53
2022/12/11 10:24:28;;;;;;;33.60;17.30;;;;;;;0.21;100.00;101010.44;5047081;28;20033;-56
2022/12/11 10:26:57;;;;;;;28.55;16.35;;;;;;;0.23;100.00;101007.78;5046803;28;20115;-56
2022/12/11 10:29:23;;;;;;;30.25;17.85;;;;;;;0.25;100.00;101009.44;5045137;28;20033;-54
2022/12/11 10:31:55;;;;;;;32.83;18.48;;;;;;;0.21;100.00;100999.97;5048433;28;20495;-55
2022/12/11 10:34:33;;;;;;;30.30;17.05;;;;;;;0.24;100.00;101005.09;5047905;28;20040;-55
2022/12/11 10:36:59;;;;;;;34.50;19.38;;;;;;;0.22;100.00;100999.09;5046891;28;20429;-58
2022/12/11 10:39:25;;;;;;;31.73;18.80;;;;;;;0.22;100.00;100998.22;5047976;28;20029;-57
2022/12/11 10:41:53;;;;;;;27.67;18.08;;;;;;;0.22;100.00;100998.22;5045060;28;20051;-56
2022/12/11 10:44:24;;;;;;;28.85;18.45;;;;;;;0.19;100.00;100993.94;5043819;28;20167;-58
2022/12/11 10:47:12;;;;;;;32.97;18.88;;;;;;;0.21;100.00;100994.75;5046181;28;20112;-58
2022/12/11 10:49:42;;;;;;;31.77;17.70;;;;;;;0.19;100.00;100991.34;5045466;28;20040;-57
2022/12/11 10:52:33;;;;;;;31.60;18.50;;;;;;;0.23;100.00;100994.72;5046331;28;20275;-58
2022/12/11 10:55:23;;;;;;;32.97;19.27;;;;;;;0.26;100.00;100990.25;5041600;28;20188;-57
2022/12/11 10:57:59;;;;;;;;;;;;;;;0.31;100.00;100985.72;5047321;28;20025;-57
2022/12/11 11:00:39;;;;;;;36.88;17.92;;;;;;;0.30;100.00;100983.16;5048341;28;19925;-57
2022/12/11 11:03:22;;;;;;;29.77;18.02;;;;;;;0.31;100.00;100980.50;5049329;28;20104;-54
2022/12/11 11:05:49;;;;;;;28.23;17.13;;;;;;;0.33;100.00;100988.28;5049759;28;20029;-56
2022/12/11 11:08:24;;;;;;;29.38;18.88;;;;;;;0.36;100.00;100985.59;5049815;28;20128;-57
2022/12/11 11:10:55;;;;;;;31.27;17.88;;;;;;;0.39;100.00;100979.41;5035905;28;20135;-58
2022/12/11 11:13:26;;;;;;;29.38;18.48;;;;;;;0.42;100.00;100980.16;5047271;28;20048;-57
2022/12/11 11:16:05;;;;;;;32.15;18.67;;;;;;;0.45;100.00;100977.47;5043820;28;20592;-58
2022/12/11 11:18:32;;;;;;;33.97;18.75;;;;;;;0.48;100.00;100979.97;5045599;28;20025;-58
2022/12/11 11:20:59;;;;;;;28.98;18.17;;;;;;;0.50;100.00;100980.78;5047064;28;20593;-57